sensor_id;sensor_type;location;lat;lon;timestamp;pressure;altitude;pressure_sealevel;temperature;humidity
71772;BME280;59606;52.138;5.424;2023-04-04T00:00:36;103236.22;;;2.65;70.54
71772;BME280;59606;52.138;5.424;2023-04-04T00:03:04;103236.16;;;2.60;70.55
71772;BME280;59606;52.138;5.424;2023-04-04T00:05:31;103234.44;;;2.59;70.85
71772;BME280;59606;52.138;5.424;2023-04-04T00:07:58;103224.94;;;2.55;70.97
71772;BME280;59606;52.138;5.424;2023-04-04T00:10:25;103227.47;;;2.52;70.94
71772;BME280;59606;52.138;5.424;2023-04-04T00:12:51;103225.69;;;2.49;70.56
71772;BME280;59606;52.138;5.424;2023-04-04T00:15:18;103221.38;;;2.47;71.10
71772;BME280;59606;52.138;5.424;2023-04-04T00:17:44;103218.78;;;2.47;71.16
71772;BME280;59606;52.138;5.424;2023-04-04T00:20:11;103209.31;;;2.44;71.46
71772;BME280;59606;52.138;5.424;2023-04-04T00:22:37;103210.16;;;2.43;71.57
71772;BME280;59606;52.138;5.424;2023-04-04T00:25:04;103205.81;;;2.39;71.59
71772;BME280;59606;52.138;5.424;2023-04-04T00:27:31;103208.31;;;2.36;71.97
71772;BME280;59606;52.138;5.424;2023-04-04T00:29:57;103198.78;;;2.30;72.37
71772;BME280;59606;52.138;5.424;2023-04-04T00:32:24;103199.59;;;2.28;72.45
71772;BME280;59606;52.138;5.424;2023-04-04T00:34:53;103194.38;;;2.23;72.52
71772;BME280;59606;52.138;5.424;2023-04-04T00:37:19;103196.03;;;2.21;72.77
71772;BME280;59606;52.138;5.424;2023-04-04T00:39:47;103197.72;;;2.19;72.61
71772;BME280;59606;52.138;5.424;2023-04-04T00:42:13;103196.81;;;2.16;73.02
71772;BME280;59606;52.138;5.424;2023-04-04T00:44:40;103207.03;;;2.12;73.14
71772;BME280;59606;52.138;5.424;2023-04-04T00:47:06;103206.13;;;2.09;73.27
71772;BME280;59606;52.138;5.424;2023-04-04T00:49:33;103199.19;;;2.05;73.25
71772;BME280;59606;52.138;5.424;2023-04-04T00:51:59;103199.13;;;2.02;73.34
71772;BME280;59606;52.138;5.424;2023-04-04T00:54:26;103195.66;;;2.00;74.00
71772;BME280;59606;52.138;5.424;2023-04-04T00:56:54;103204.22;;;1.99;73.81
71772;BME280;59606;52.138;5.424;2023-04-04T00:59:21;103192.19;;;1.98;73.96
71772;BME280;59606;52.138;5.424;2023-04-04T01:01:49;103194.72;;;1.95;74.29
71772;BME280;59606;52.138;5.424;2023-04-04T01:04:15;103201.47;;;1.91;74.28
71772;BME280;59606;52.138;5.424;2023-04-04T01:06:42;103195.41;;;1.86;74.50
71772;BME280;59606;52.138;5.424;2023-04-04T01:09:14;103206.47;;;1.82;74.88
71772;BME280;59606;52.138;5.424;2023-04-04T01:11:41;103196.91;;;1.76;75.07
71772;BME280;59606;52.138;5.424;2023-04-04T01:14:09;103210.56;;;1.74;75.33
71772;BME280;59606;52.138;5.424;2023-04-04T01:16:35;103203.63;;;1.68;75.43
71772;BME280;59606;52.138;5.424;2023-04-04T01:19:05;103195.84;;;1.65;75.61
71772;BME280;59606;52.138;5.424;2023-04-04T01:21:34;103195.72;;;1.60;75.87
71772;BME280;59606;52.138;5.424;2023-04-04T01:24:02;103198.25;;;1.57;75.55
71772;BME280;59606;52.138;5.424;2023-04-04T01:26:30;103195.59;;;1.53;75.93
71772;BME280;59606;52.138;5.424;2023-04-04T01:28:57;103202.34;;;1.48;76.40
71772;BME280;59606;52.138;5.424;2023-04-04T01:34:22;103204.72;;;1.38;76.76
71772;BME280;59606;52.138;5.424;2023-04-04T01:37:02;103204.66;;;1.35;76.89
71772;BME280;59606;52.138;5.424;2023-04-04T01:39:37;103190.91;;;1.33;76.86
71772;BME280;59606;52.138;5.424;2023-04-04T01:42:05;103197.66;;;1.30;77.04
71772;BME280;59606;52.138;5.424;2023-04-04T01:44:33;103207.84;;;1.25;77.32
71772;BME280;59606;52.138;5.424;2023-04-04T01:46:59;103206.88;;;1.20;77.60
71772;BME280;59606;52.138;5.424;2023-04-04T01:49:25;103211.94;;;1.17;77.76
71772;BME280;59606;52.138;5.424;2023-04-04T01:51:52;103204.13;;;1.12;77.75
71772;BME280;59606;52.138;5.424;2023-04-04T01:54:19;103207.50;;;1.10;78.28
71772;BME280;59606;52.138;5.424;2023-04-04T01:56:46;103204.94;;;1.10;78.41
71772;BME280;59606;52.138;5.424;2023-04-04T01:59:12;103198.91;;;1.08;78.62
71772;BME280;59606;52.138;5.424;2023-04-04T02:01:39;103200.59;;;1.07;78.84
71772;BME280;59606;52.138;5.424;2023-04-04T02:04:05;103200.53;;;1.04;79.29
71772;BME280;59606;52.138;5.424;2023-04-04T02:06:32;103191.94;;;1.02;79.30
71772;BME280;59606;52.138;5.424;2023-04-04T02:08:59;103198.69;;;0.99;79.56
71772;BME280;59606;52.138;5.424;2023-04-04T02:11:26;103201.19;;;0.96;79.21
71772;BME280;59606;52.138;5.424;2023-04-04T02:13:52;103205.41;;;0.93;79.75
71772;BME280;59606;52.138;5.424;2023-04-04T02:16:19;103205.31;;;0.90;80.30
71772;BME280;59606;52.138;5.424;2023-04-04T02:18:46;103208.72;;;0.88;79.89
71772;BME280;59606;52.138;5.424;2023-04-04T02:21:13;103206.94;;;0.85;80.34
71772;BME280;59606;52.138;5.424;2023-04-04T02:23:39;103212.84;;;0.83;80.55
71772;BME280;59606;52.138;5.424;2023-04-04T02:26:06;103217.06;;;0.79;80.54
71772;BME280;59606;52.138;5.424;2023-04-04T02:28:32;103217.84;;;0.77;80.82
71772;BME280;59606;52.138;5.424;2023-04-04T02:31:00;103214.41;;;0.76;80.72
71772;BME280;59606;52.138;5.424;2023-04-04T02:33:30;103210.91;;;0.73;80.85
71772;BME280;59606;52.138;5.424;2023-04-04T02:35:58;103206.63;;;0.72;81.15
71772;BME280;59606;52.138;5.424;2023-04-04T02:38:26;103204.00;;;0.70;81.41
71772;BME280;59606;52.138;5.424;2023-04-04T02:40:52;103203.91;;;0.67;81.47
71772;BME280;59606;52.138;5.424;2023-04-04T02:43:19;103193.59;;;0.64;81.37
71772;BME280;59606;52.138;5.424;2023-04-04T02:45:48;103191.03;;;0.64;81.57
71772;BME280;59606;52.138;5.424;2023-04-04T02:48:15;103196.97;;;0.61;81.82
71772;BME280;59606;52.138;5.424;2023-04-04T02:50:41;103187.47;;;0.59;81.80
71772;BME280;59606;52.138;5.424;2023-04-04T02:53:08;103189.09;;;0.55;81.86
71772;BME280;59606;52.138;5.424;2023-04-04T02:55:35;103181.34;;;0.52;81.78
71772;BME280;59606;52.138;5.424;2023-04-04T02:58:01;103177.84;;;0.49;81.89
71772;BME280;59606;52.138;5.424;2023-04-04T03:00:28;103174.34;;;0.46;81.88
71772;BME280;59606;52.138;5.424;2023-04-04T03:02:56;103175.97;;;0.43;82.33
71772;BME280;59606;52.138;5.424;2023-04-04T03:05:23;103179.34;;;0.40;82.49
71772;BME280;59606;52.138;5.424;2023-04-04T03:07:54;103181.00;;;0.38;82.46
71772;BME280;59606;52.138;5.424;2023-04-04T03:10:25;103184.34;;;0.36;82.57
71772;BME280;59606;52.138;5.424;2023-04-04T03:12:52;103180.00;;;0.33;82.74
71772;BME280;59606;52.138;5.424;2023-04-04T03:15:19;103186.81;;;0.31;82.97
71772;BME280;59606;52.138;5.424;2023-04-04T03:17:45;103185.03;;;0.29;83.12
71772;BME280;59606;52.138;5.424;2023-04-04T03:20:15;103191.78;;;0.25;83.09
71772;BME280;59606;52.138;5.424;2023-04-04T03:22:42;103185.72;;;0.23;83.69
71772;BME280;59606;52.138;5.424;2023-04-04T03:25:08;103178.88;;;0.22;83.83
71772;BME280;59606;52.138;5.424;2023-04-04T03:27:35;103179.66;;;0.19;83.94
71772;BME280;59606;52.138;5.424;2023-04-04T03:30:02;103177.06;;;0.18;83.81
71772;BME280;59606;52.138;5.424;2023-04-04T03:32:29;103171.84;;;0.15;83.76
71772;BME280;59606;52.138;5.424;2023-04-04T03:34:56;103177.75;;;0.12;83.91
71772;BME280;59606;52.138;5.424;2023-04-04T03:37:23;103170.03;;;0.11;84.34
71772;BME280;59606;52.138;5.424;2023-04-04T03:39:49;103167.44;;;0.09;84.10
71772;BME280;59606;52.138;5.424;2023-04-04T03:42:16;103163.09;;;0.07;84.30
71772;BME280;59606;52.138;5.424;2023-04-04T03:44:42;103164.75;;;0.05;83.93
71772;BME280;59606;52.138;5.424;2023-04-04T03:47:09;103164.69;;;0.03;84.39
71772;BME280;59606;52.138;5.424;2023-04-04T03:49:35;103165.44;;;-0.01;84.72
71772;BME280;59606;52.138;5.424;2023-04-04T03:52:02;103167.13;;;-0.03;84.31
71772;BME280;59606;52.138;5.424;2023-04-04T03:54:28;103168.75;;;-0.07;84.20
71772;BME280;59606;52.138;5.424;2023-04-04T03:56:55;103161.84;;;-0.09;84.41
71772;BME280;59606;52.138;5.424;2023-04-04T03:59:22;103167.72;;;-0.12;84.51
71772;BME280;59606;52.138;5.424;2023-04-04T04:01:49;103165.16;;;-0.13;84.89
71772;BME280;59606;52.138;5.424;2023-04-04T04:04:16;103170.19;;;-0.16;85.33
71772;BME280;59606;52.138;5.424;2023-04-04T04:06:42;103176.94;;;-0.18;84.67
71772;BME280;59606;52.138;5.424;2023-04-04T04:09:09;103180.28;;;-0.21;85.46
71772;BME280;59606;52.138;5.424;2023-04-04T04:11:37;103181.97;;;-0.23;85.25
71772;BME280;59606;52.138;5.424;2023-04-04T04:14:03;103181.91;;;-0.25;85.23
71772;BME280;59606;52.138;5.424;2023-04-04T04:16:30;103187.00;;;-0.26;85.63
71772;BME280;59606;52.138;5.424;2023-04-04T04:18:58;103190.34;;;-0.27;85.64
71772;BME280;59606;52.138;5.424;2023-04-04T04:21:24;103185.97;;;-0.31;85.83
71772;BME280;59606;52.138;5.424;2023-04-04T04:23:51;103183.41;;;-0.31;85.82
71772;BME280;59606;52.138;5.424;2023-04-04T04:26:18;103189.31;;;-0.34;85.80
71772;BME280;59606;52.138;5.424;2023-04-04T04:28:44;103187.59;;;-0.35;85.82
71772;BME280;59606;52.138;5.424;2023-04-04T04:31:13;103186.69;;;-0.37;85.59
71772;BME280;59606;52.138;5.424;2023-04-04T04:33:40;103181.50;;;-0.38;85.71
71772;BME280;59606;52.138;5.424;2023-04-04T04:36:06;103179.72;;;-0.41;86.19
71772;BME280;59606;52.138;5.424;2023-04-04T04:38:33;103184.81;;;-0.42;85.65
71772;BME280;59606;52.138;5.424;2023-04-04T04:41:00;103187.31;;;-0.44;85.84
71772;BME280;59606;52.138;5.424;2023-04-04T04:43:27;103189.78;;;-0.47;85.90
71772;BME280;59606;52.138;5.424;2023-04-04T04:45:53;103187.19;;;-0.49;85.96
71772;BME280;59606;52.138;5.424;2023-04-04T04:48:20;103181.16;;;-0.51;86.36
71772;BME280;59606;52.138;5.424;2023-04-04T04:50:47;103187.09;;;-0.52;86.19
71772;BME280;59606;52.138;5.424;2023-04-04T04:53:14;103187.09;;;-0.52;86.54
71772;BME280;59606;52.138;5.424;2023-04-04T04:55:41;103188.81;;;-0.52;86.29
71772;BME280;59606;52.138;5.424;2023-04-04T04:58:08;103194.66;;;-0.56;86.32
71772;BME280;59606;52.138;5.424;2023-04-04T05:00:36;103201.41;;;-0.58;86.58
71772;BME280;59606;52.138;5.424;2023-04-04T05:03:04;103194.59;;;-0.58;86.42
71772;BME280;59606;52.138;5.424;2023-04-04T05:05:33;103204.84;;;-0.58;86.67
71772;BME280;59606;52.138;5.424;2023-04-04T05:08:01;103198.84;;;-0.60;86.48
71772;BME280;59606;52.138;5.424;2023-04-04T05:10:29;103192.84;;;-0.60;86.64
71772;BME280;59606;52.138;5.424;2023-04-04T05:12:56;103197.03;;;-0.62;86.91
71772;BME280;59606;52.138;5.424;2023-04-04T05:15:23;103197.06;;;-0.61;87.03
71772;BME280;59606;52.138;5.424;2023-04-04T05:17:51;103199.59;;;-0.62;86.76
71772;BME280;59606;52.138;5.424;2023-04-04T05:20:18;103201.28;;;-0.63;87.00
71772;BME280;59606;52.138;5.424;2023-04-04T05:22:44;103195.34;;;-0.62;87.42
71772;BME280;59606;52.138;5.424;2023-04-04T05:25:12;103199.59;;;-0.62;87.47
71772;BME280;59606;52.138;5.424;2023-04-04T05:27:39;103203.88;;;-0.61;87.44
71772;BME280;59606;52.138;5.424;2023-04-04T05:30:06;103203.88;;;-0.61;87.52
71772;BME280;59606;52.138;5.424;2023-04-04T05:32:33;103203.09;;;-0.60;87.40
71772;BME280;59606;52.138;5.424;2023-04-04T05:35:00;103198.84;;;-0.60;87.50
71772;BME280;59606;52.138;5.424;2023-04-04T05:37:27;103207.31;;;-0.61;87.70
71772;BME280;59606;52.138;5.424;2023-04-04T05:39:53;103203.94;;;-0.60;87.64
71772;BME280;59606;52.138;5.424;2023-04-04T05:42:20;103207.38;;;-0.59;87.47
71772;BME280;59606;52.138;5.424;2023-04-04T05:44:47;103205.59;;;-0.62;87.80
71772;BME280;59606;52.138;5.424;2023-04-04T05:47:13;103205.66;;;-0.60;87.64
71772;BME280;59606;52.138;5.424;2023-04-04T05:49:41;103202.25;;;-0.59;87.89
71772;BME280;59606;52.138;5.424;2023-04-04T05:52:07;103204.84;;;-0.58;87.90
71772;BME280;59606;52.138;5.424;2023-04-04T05:54:35;103201.50;;;-0.55;87.85
71772;BME280;59606;52.138;5.424;2023-04-04T05:57:02;103205.88;;;-0.53;88.21
71772;BME280;59606;52.138;5.424;2023-04-04T05:59:28;103211.06;;;-0.50;88.11
71772;BME280;59606;52.138;5.424;2023-04-04T06:01:55;103208.53;;;-0.48;88.28
71772;BME280;59606;52.138;5.424;2023-04-04T06:04:22;103209.50;;;-0.44;88.44
71772;BME280;59606;52.138;5.424;2023-04-04T06:06:49;103199.41;;;-0.40;88.61
71772;BME280;59606;52.138;5.424;2023-04-04T06:09:16;103202.19;;;-0.32;88.32
71772;BME280;59606;52.138;5.424;2023-04-04T06:11:43;103209.22;;;-0.25;88.78
71772;BME280;59606;52.138;5.424;2023-04-04T06:14:09;103209.41;;;-0.17;88.94
71772;BME280;59606;52.138;5.424;2023-04-04T06:16:38;103202.75;;;-0.11;89.16
71772;BME280;59606;52.138;5.424;2023-04-04T06:19:05;103197.91;;;-0.02;89.18
71772;BME280;59606;52.138;5.424;2023-04-04T06:21:31;103198.97;;;0.07;88.89
71772;BME280;59606;52.138;5.424;2023-04-04T06:23:58;103193.19;;;0.14;89.79
71772;BME280;59606;52.138;5.424;2023-04-04T06:26:24;103192.44;;;0.18;89.49
71772;BME280;59606;52.138;5.424;2023-04-04T06:28:52;103182.44;;;0.27;89.89
71772;BME280;59606;52.138;5.424;2023-04-04T06:31:19;103176.56;;;0.31;89.72
71772;BME280;59606;52.138;5.424;2023-04-04T06:33:46;103189.59;;;0.40;89.74
71772;BME280;59606;52.138;5.424;2023-04-04T06:36:13;103195.84;;;0.52;89.99
71772;BME280;59606;52.138;5.424;2023-04-04T06:38:39;103195.28;;;0.63;90.42
71772;BME280;59606;52.138;5.424;2023-04-04T06:41:06;103198.16;;;0.76;90.06
71772;BME280;59606;52.138;5.424;2023-04-04T06:43:32;103203.53;;;0.86;90.27
71772;BME280;59606;52.138;5.424;2023-04-04T06:45:59;103207.25;;;0.99;89.92
71772;BME280;59606;52.138;5.424;2023-04-04T06:48:26;103204.91;;;1.08;89.54
71772;BME280;59606;52.138;5.424;2023-04-04T06:50:52;103206.78;;;1.15;89.24
71772;BME280;59606;52.138;5.424;2023-04-04T06:53:19;103208.72;;;1.26;88.94
71772;BME280;59606;52.138;5.424;2023-04-04T06:55:46;103218.34;;;1.34;88.68
71772;BME280;59606;52.138;5.424;2023-04-04T06:58:12;103213.38;;;1.44;88.00
71772;BME280;59606;52.138;5.424;2023-04-04T07:00:38;103218.47;;;1.42;87.45
71772;BME280;59606;52.138;5.424;2023-04-04T07:03:06;103213.41;;;1.45;87.01
71772;BME280;59606;52.138;5.424;2023-04-04T07:05:36;103207.56;;;1.52;86.42
71772;BME280;59606;52.138;5.424;2023-04-04T07:08:04;103209.41;;;1.58;86.13
71772;BME280;59606;52.138;5.424;2023-04-04T07:10:32;103204.31;;;1.61;85.97
71772;BME280;59606;52.138;5.424;2023-04-04T07:12:58;103209.56;;;1.65;85.81
71772;BME280;59606;52.138;5.424;2023-04-04T07:15:25;103204.69;;;1.78;85.79
71772;BME280;59606;52.138;5.424;2023-04-04T07:17:53;103210.97;;;1.94;85.90
71772;BME280;59606;52.138;5.424;2023-04-04T07:20:20;103207.91;;;2.15;85.43
71772;BME280;59606;52.138;5.424;2023-04-04T07:22:47;103209.13;;;2.33;84.52
71772;BME280;59606;52.138;5.424;2023-04-04T07:25:14;103213.59;;;2.44;84.03
71772;BME280;59606;52.138;5.424;2023-04-04T07:27:41;103215.63;;;2.62;83.66
71772;BME280;59606;52.138;5.424;2023-04-04T07:30:07;103205.63;;;2.81;82.67
71772;BME280;59606;52.138;5.424;2023-04-04T07:32:34;103207.47;;;2.89;81.73
71772;BME280;59606;52.138;5.424;2023-04-04T07:35:01;103211.81;;;2.94;80.79
71772;BME280;59606;52.138;5.424;2023-04-04T07:37:28;103197.47;;;3.09;80.83
71772;BME280;59606;52.138;5.424;2023-04-04T07:39:54;103206.38;;;3.34;80.75
71772;BME280;59606;52.138;5.424;2023-04-04T07:42:22;103197.06;;;3.43;79.70
71772;BME280;59606;52.138;5.424;2023-04-04T07:44:49;103209.09;;;3.43;78.28
71772;BME280;59606;52.138;5.424;2023-04-04T07:47:16;103213.34;;;3.41;77.81
71772;BME280;59606;52.138;5.424;2023-04-04T07:49:43;103222.13;;;3.53;77.76
71772;BME280;59606;52.138;5.424;2023-04-04T07:52:09;103210.13;;;3.56;76.35
71772;BME280;59606;52.138;5.424;2023-04-04T07:54:36;103205.75;;;3.51;76.40
71772;BME280;59606;52.138;5.424;2023-04-04T07:57:02;103204.13;;;3.57;76.21
71772;BME280;59606;52.138;5.424;2023-04-04T07:59:31;103202.41;;;3.57;75.70
71772;BME280;59606;52.138;5.424;2023-04-04T08:01:58;103198.13;;;3.59;74.80
71772;BME280;59606;52.138;5.424;2023-04-04T08:04:24;103195.44;;;3.51;74.96
71772;BME280;59606;52.138;5.424;2023-04-04T08:06:51;103191.31;;;3.63;75.68
71772;BME280;59606;52.138;5.424;2023-04-04T08:09:18;103194.03;;;3.76;73.95
71772;BME280;59606;52.138;5.424;2023-04-04T08:11:44;103192.38;;;3.82;74.56
71772;BME280;59606;52.138;5.424;2023-04-04T08:14:11;103192.44;;;3.88;74.82
71772;BME280;59606;52.138;5.424;2023-04-04T08:16:38;103176.94;;;3.83;73.60
71772;BME280;59606;52.138;5.424;2023-04-04T08:19:05;103185.50;;;3.81;73.69
71772;BME280;59606;52.138;5.424;2023-04-04T08:21:36;103191.53;;;3.84;73.91
71772;BME280;59606;52.138;5.424;2023-04-04T08:24:02;103189.97;;;3.97;73.32
71772;BME280;59606;52.138;5.424;2023-04-04T08:26:29;103185.75;;;4.05;73.34
71772;BME280;59606;52.138;5.424;2023-04-04T08:28:55;103187.56;;;4.14;70.56
71772;BME280;59606;52.138;5.424;2023-04-04T08:31:22;103179.03;;;4.22;70.55
71772;BME280;59606;52.138;5.424;2023-04-04T08:33:49;103182.69;;;4.43;70.86
71772;BME280;59606;52.138;5.424;2023-04-04T08:36:15;103180.25;;;4.64;70.74
71772;BME280;59606;52.138;5.424;2023-04-04T08:38:43;103175.97;;;4.68;68.48
71772;BME280;59606;52.138;5.424;2023-04-04T08:41:11;103170.78;;;4.65;67.36
71772;BME280;59606;52.138;5.424;2023-04-04T08:43:39;103174.38;;;4.85;68.53
71772;BME280;59606;52.138;5.424;2023-04-04T08:46:10;103166.78;;;5.10;67.93
71772;BME280;59606;52.138;5.424;2023-04-04T08:48:40;103171.16;;;5.25;67.24
71772;BME280;59606;52.138;5.424;2023-04-04T08:51:09;103167.78;;;5.39;66.87
71772;BME280;59606;52.138;5.424;2023-04-04T08:53:37;103167.81;;;5.52;66.04
71772;BME280;59606;52.138;5.424;2023-04-04T08:56:04;103168.66;;;5.46;64.80
71772;BME280;59606;52.138;5.424;2023-04-04T08:58:31;103163.53;;;5.55;64.66
71772;BME280;59606;52.138;5.424;2023-04-04T09:00:58;103161.81;;;5.54;63.19
71772;BME280;59606;52.138;5.424;2023-04-04T09:03:26;103169.59;;;5.63;63.07
71772;BME280;59606;52.138;5.424;2023-04-04T09:05:57;103164.44;;;5.76;62.64
71772;BME280;59606;52.138;5.424;2023-04-04T09:08:25;103161.00;;;5.77;61.56
71772;BME280;59606;52.138;5.424;2023-04-04T09:10:51;103167.94;;;5.85;61.46
71772;BME280;59606;52.138;5.424;2023-04-04T09:13:18;103165.41;;;5.99;61.34
71772;BME280;59606;52.138;5.424;2023-04-04T09:15:49;103160.25;;;6.13;60.97
71772;BME280;59606;52.138;5.424;2023-04-04T09:18:20;103164.56;;;6.16;60.92
71772;BME280;59606;52.138;5.424;2023-04-04T09:20:47;103168.91;;;6.24;60.25
71772;BME280;59606;52.138;5.424;2023-04-04T09:23:15;103169.75;;;6.23;58.93
71772;BME280;59606;52.138;5.424;2023-04-04T09:25:46;103172.34;;;6.25;59.46
71772;BME280;59606;52.138;5.424;2023-04-04T09:28:20;103166.31;;;6.32;58.71
71772;BME280;59606;52.138;5.424;2023-04-04T09:30:51;103165.44;;;6.28;58.51
71772;BME280;59606;52.138;5.424;2023-04-04T09:33:19;103161.13;;;6.41;58.87
71772;BME280;59606;52.138;5.424;2023-04-04T09:35:53;103160.28;;;6.48;58.21
71772;BME280;59606;52.138;5.424;2023-04-04T09:38:22;103155.94;;;6.46;57.76
71772;BME280;59606;52.138;5.424;2023-04-04T09:40:48;103153.38;;;6.47;57.00
71772;BME280;59606;52.138;5.424;2023-04-04T09:43:15;103155.09;;;6.54;56.86
71772;BME280;59606;52.138;5.424;2023-04-04T09:45:44;103153.38;;;6.55;56.62
71772;BME280;59606;52.138;5.424;2023-04-04T09:48:11;103149.03;;;6.66;56.75
71772;BME280;59606;52.138;5.424;2023-04-04T09:50:45;103148.16;;;6.76;57.00
71772;BME280;59606;52.138;5.424;2023-04-04T09:53:18;103150.72;;;6.89;56.94
71772;BME280;59606;52.138;5.424;2023-04-04T09:55:53;103155.03;;;6.91;56.68
71772;BME280;59606;52.138;5.424;2023-04-04T09:58:27;103143.78;;;7.00;56.33
71772;BME280;59606;52.138;5.424;2023-04-04T10:00:56;103137.72;;;7.02;55.88
71772;BME280;59606;52.138;5.424;2023-04-04T10:03:23;103148.91;;;7.07;55.79
71772;BME280;59606;52.138;5.424;2023-04-04T10:05:59;103146.28;;;7.23;56.18
71772;BME280;59606;52.138;5.424;2023-04-04T10:08:27;103140.22;;;7.24;53.82
71772;BME280;59606;52.138;5.424;2023-04-04T10:10:59;103131.56;;;7.29;54.07
71772;BME280;59606;52.138;5.424;2023-04-04T10:13:38;103135.00;;;7.36;54.55
71772;BME280;59606;52.138;5.424;2023-04-04T10:16:08;103124.53;;;7.53;54.39
71772;BME280;59606;52.138;5.424;2023-04-04T10:18:36;103122.78;;;7.60;53.92
71772;BME280;59606;52.138;5.424;2023-04-04T10:21:05;103119.31;;;7.57;52.97
71772;BME280;59606;52.138;5.424;2023-04-04T10:23:35;103121.91;;;7.62;53.48
71772;BME280;59606;52.138;5.424;2023-04-04T10:26:02;103116.66;;;7.70;52.84
71772;BME280;59606;52.138;5.424;2023-04-04T10:28:28;103112.31;;;7.76;52.77
71772;BME280;59606;52.138;5.424;2023-04-04T10:31:23;103110.53;;;7.83;51.62
71772;BME280;59606;52.138;5.424;2023-04-04T10:34:02;103111.38;;;7.87;52.94
71772;BME280;59606;52.138;5.424;2023-04-04T10:36:48;103106.13;;;7.91;51.25
71772;BME280;59606;52.138;5.424;2023-04-04T10:39:45;103103.56;;;7.90;52.34
71772;BME280;59606;52.138;5.424;2023-04-04T10:42:18;103097.38;;;8.04;51.26
71772;BME280;59606;52.138;5.424;2023-04-04T10:44:45;103095.59;;;8.11;50.76
71772;BME280;59606;52.138;5.424;2023-04-04T10:47:22;103087.75;;;8.22;50.56
71772;BME280;59606;52.138;5.424;2023-04-04T10:49:50;103088.53;;;8.32;50.50
71772;BME280;59606;52.138;5.424;2023-04-04T10:52:19;103091.94;;;8.40;51.86
71772;BME280;59606;52.138;5.424;2023-04-04T10:54:48;103090.13;;;8.45;51.56
71772;BME280;59606;52.138;5.424;2023-04-04T10:57:15;103089.16;;;8.57;51.06
71772;BME280;59606;52.138;5.424;2023-04-04T10:59:56;103076.97;;;8.63;50.58
71772;BME280;59606;52.138;5.424;2023-04-04T11:02:46;103075.19;;;8.67;50.66
71772;BME280;59606;52.138;5.424;2023-04-04T11:05:37;103070.84;;;8.69;49.85
71772;BME280;59606;52.138;5.424;2023-04-04T11:08:21;103076.03;;;8.70;48.88
71772;BME280;59606;52.138;5.424;2023-04-04T11:10:50;103069.97;;;8.70;49.14
71772;BME280;59606;52.138;5.424;2023-04-04T11:13:19;103071.69;;;8.72;49.74
71772;BME280;59606;52.138;5.424;2023-04-04T11:15:54;103068.97;;;8.83;50.51
71772;BME280;59606;52.138;5.424;2023-04-04T11:21:03;103063.66;;;8.91;48.05
71772;BME280;59606;52.138;5.424;2023-04-04T11:28:58;103046.06;;;9.13;47.40
71772;BME280;59606;52.138;5.424;2023-04-04T11:31:27;103050.31;;;9.18;47.64
71772;BME280;59606;52.138;5.424;2023-04-04T11:34:02;103047.69;;;9.18;47.72
71772;BME280;59606;52.138;5.424;2023-04-04T11:41:48;103043.28;;;9.25;47.54
71772;BME280;59606;52.138;5.424;2023-04-04T11:44:19;103037.94;;;9.34;48.42
71772;BME280;59606;52.138;5.424;2023-04-04T11:46:48;103036.00;;;9.50;46.84
71772;BME280;59606;52.138;5.424;2023-04-04T11:49:24;103035.91;;;9.56;47.89
71772;BME280;59606;52.138;5.424;2023-04-04T11:51:50;103034.84;;;9.70;47.12
71772;BME280;59606;52.138;5.424;2023-04-04T11:54:17;103029.59;;;9.73;46.23
71772;BME280;59606;52.138;5.424;2023-04-04T11:56:44;103032.16;;;9.74;47.91
71772;BME280;59606;52.138;5.424;2023-04-04T11:59:12;103026.03;;;9.77;46.33
71772;BME280;59606;52.138;5.424;2023-04-04T12:01:39;103023.38;;;9.80;46.51
71772;BME280;59606;52.138;5.424;2023-04-04T12:04:06;103025.91;;;9.84;46.83
71772;BME280;59606;52.138;5.424;2023-04-04T12:06:35;103014.50;;;9.91;46.63
71772;BME280;59606;52.138;5.424;2023-04-04T12:09:03;103015.16;;;10.04;46.90
71772;BME280;59606;52.138;5.424;2023-04-04T12:11:33;103008.03;;;10.12;45.89
71772;BME280;59606;52.138;5.424;2023-04-04T12:14:00;103011.53;;;10.11;45.96
71772;BME280;59606;52.138;5.424;2023-04-04T12:16:27;103003.72;;;10.11;45.76
71772;BME280;59606;52.138;5.424;2023-04-04T12:19:00;102994.97;;;10.15;46.25
71772;BME280;59606;52.138;5.424;2023-04-04T12:21:31;102996.72;;;10.15;45.85
71772;BME280;59606;52.138;5.424;2023-04-04T12:23:58;102989.59;;;10.25;45.69
71772;BME280;59606;52.138;5.424;2023-04-04T12:26:25;102987.88;;;10.27;45.35
71772;BME280;59606;52.138;5.424;2023-04-04T12:28:55;102993.94;;;10.24;45.26
71772;BME280;59606;52.138;5.424;2023-04-04T12:31:24;102990.50;;;10.24;44.41
71772;BME280;59606;52.138;5.424;2023-04-04T12:33:52;102984.41;;;10.26;44.78
71772;BME280;59606;52.138;5.424;2023-04-04T12:36:19;102977.28;;;10.34;45.26
71772;BME280;59606;52.138;5.424;2023-04-04T12:41:28;102963.00;;;10.54;45.08
71772;BME280;59606;52.138;5.424;2023-04-04T12:44:02;102966.34;;;10.60;44.35
71772;BME280;59606;52.138;5.424;2023-04-04T12:46:39;102961.16;;;10.59;43.63
71772;BME280;59606;52.138;5.424;2023-04-04T12:49:06;102969.63;;;10.70;43.53
71772;BME280;59606;52.138;5.424;2023-04-04T12:51:37;102962.38;;;10.83;44.66
71772;BME280;59606;52.138;5.424;2023-04-04T12:54:04;102961.44;;;10.85;43.43
71772;BME280;59606;52.138;5.424;2023-04-04T12:56:33;102960.66;;;10.82;44.80
71772;BME280;59606;52.138;5.424;2023-04-04T12:59:01;102958.84;;;10.85;43.86
71772;BME280;59606;52.138;5.424;2023-04-04T13:01:29;102948.59;;;10.78;43.14
71772;BME280;59606;52.138;5.424;2023-04-04T13:04:01;102943.50;;;10.73;43.81
71772;BME280;59606;52.138;5.424;2023-04-04T13:06:30;102947.00;;;10.71;43.77
71772;BME280;59606;52.138;5.424;2023-04-04T13:08:57;102937.97;;;10.87;44.76
71772;BME280;59606;52.138;5.424;2023-04-04T13:11:24;102929.91;;;10.96;43.58
71772;BME280;59606;52.138;5.424;2023-04-04T13:14:01;102927.47;;;10.90;44.60
71772;BME280;59606;52.138;5.424;2023-04-04T13:16:32;102923.25;;;10.83;43.96
71772;BME280;59606;52.138;5.424;2023-04-04T13:18:58;102914.44;;;10.90;44.89
71772;BME280;59606;52.138;5.424;2023-04-04T13:21:25;102914.44;;;10.89;44.27